Terminal Aerodrome Forecast
Issued by NWS

Current Version | Previous Version | Graphics & Text | Print | Product List | Glossary On
Versions: 1 2 3 4 5 6 7 8 9 10 11 12 13 14
000
FTUS41 KRNK 171139
TAFLWB
TAF
KLWB 171139Z 1712/1812 29004KT 4SM -SN OVC015
     FM171700 31007KT P6SM BKN050
     FM171900 31008KT P6SM SCT250
     FM180600 29009KT P6SM SCT050=

USA.gov is the U.S. government's official web portal to all federal, state and local government web resources and services.